createdAt,value
2022-10-10T00:01:35.841Z,3.20
2022-10-10T00:04:03.629Z,4.50
2022-10-10T00:06:33.341Z,3.00
2022-10-10T00:09:01.231Z,2.23
2022-10-10T00:11:28.396Z,2.70
2022-10-10T00:13:55.530Z,2.67
2022-10-10T00:16:23.099Z,2.23
2022-10-10T00:18:51.578Z,2.43
2022-10-10T00:21:18.651Z,2.30
2022-10-10T00:23:45.764Z,2.83
2022-10-10T00:26:18.552Z,2.50
2022-10-10T00:28:46.487Z,2.30
2022-10-10T00:31:13.577Z,2.30
2022-10-10T00:33:40.699Z,2.80
2022-10-10T00:36:09.136Z,3.10
2022-10-10T00:38:36.325Z,1.90
2022-10-10T00:41:03.465Z,2.10
2022-10-10T00:43:30.756Z,2.60
2022-10-10T00:45:57.915Z,2.60
2022-10-10T00:48:26.486Z,2.27
2022-10-10T00:50:55.869Z,2.57
2022-10-10T00:53:26.480Z,2.70
2022-10-10T00:55:53.937Z,2.57
2022-10-10T00:58:21.435Z,2.00
2022-10-10T01:00:48.618Z,2.47
2022-10-10T01:03:15.751Z,3.13
2022-10-10T01:05:43.638Z,2.60
2022-10-10T01:08:10.970Z,2.50
2022-10-10T01:10:42.968Z,2.60
2022-10-10T01:13:12.952Z,2.33
2022-10-10T01:15:47.519Z,2.80
2022-10-10T01:18:17.855Z,2.53
2022-10-10T01:20:58.422Z,2.47
2022-10-10T01:23:40.386Z,3.13
2022-10-10T01:26:18.988Z,2.33
2022-10-10T01:28:51.401Z,2.60
2022-10-10T01:31:21.185Z,2.33
2022-10-10T01:33:52.974Z,2.43
2022-10-10T01:36:23.031Z,4.20
2022-10-10T01:38:52.945Z,2.37
2022-10-10T01:41:22.677Z,2.47
2022-10-10T01:43:54.553Z,2.00
2022-10-10T01:46:21.673Z,2.37
2022-10-10T01:48:49.456Z,2.63
2022-10-10T01:51:22.854Z,2.20
2022-10-10T01:53:54.190Z,2.60
2022-10-10T01:56:27.406Z,2.50
2022-10-10T01:59:01.429Z,2.60
2022-10-10T02:01:34.289Z,2.33
2022-10-10T02:04:05.243Z,2.20
2022-10-10T02:06:36.514Z,2.37
2022-10-10T02:09:05.896Z,2.23
2022-10-10T02:11:34.322Z,2.03
2022-10-10T02:14:03.708Z,2.50
2022-10-10T02:16:32.487Z,2.20
2022-10-10T02:19:00.162Z,2.47
2022-10-10T02:21:27.483Z,2.00
2022-10-10T02:23:55.937Z,2.67
2022-10-10T02:26:24.402Z,2.20
2022-10-10T02:28:54.650Z,2.40
2022-10-10T02:31:27.410Z,2.70
2022-10-10T02:33:56.134Z,2.30
2022-10-10T02:36:23.670Z,2.57
2022-10-10T02:38:51.382Z,1.97
2022-10-10T02:41:19.991Z,2.57
2022-10-10T02:43:47.271Z,1.97
2022-10-10T02:46:15.175Z,2.50
2022-10-10T02:48:43.774Z,2.90
2022-10-10T02:51:11.271Z,2.30
2022-10-10T02:53:38.771Z,2.13
2022-10-10T02:56:06.074Z,2.50
2022-10-10T02:58:33.326Z,2.33
2022-10-10T03:01:00.496Z,2.97
2022-10-10T03:03:27.681Z,2.87
2022-10-10T03:05:56.132Z,2.43
2022-10-10T03:08:23.245Z,3.17
2022-10-10T03:10:57.086Z,2.53
2022-10-10T03:13:24.227Z,2.60
2022-10-10T03:15:51.307Z,2.53
2022-10-10T03:18:18.527Z,2.50
2022-10-10T03:20:45.722Z,3.00
2022-10-10T03:23:14.278Z,2.30
2022-10-10T03:25:42.198Z,2.80
2022-10-10T03:28:09.318Z,3.00
2022-10-10T03:30:36.536Z,2.77
2022-10-10T03:33:03.977Z,2.50
2022-10-10T03:35:31.103Z,3.00
2022-10-10T03:37:58.650Z,2.73
2022-10-10T03:40:27.791Z,3.10
2022-10-10T03:42:55.277Z,2.60
2022-10-10T03:45:22.513Z,3.03
2022-10-10T03:47:50.593Z,2.20
2022-10-10T03:50:17.828Z,2.80
2022-10-10T03:52:44.939Z,2.50
2022-10-10T03:55:12.041Z,2.50
2022-10-10T03:57:40.570Z,2.77
2022-10-10T04:00:08.344Z,2.77
2022-10-10T04:02:35.454Z,3.00
2022-10-10T04:05:02.607Z,2.50
2022-10-10T04:07:29.790Z,2.50
2022-10-10T04:09:56.852Z,3.13
2022-10-10T04:12:24.175Z,3.77
2022-10-10T04:14:52.606Z,3.20
2022-10-10T04:17:19.712Z,3.03
2022-10-10T04:19:46.811Z,2.40
2022-10-10T04:22:13.974Z,3.40
2022-10-10T04:24:41.242Z,3.50
2022-10-10T04:27:08.375Z,4.20
2022-10-10T04:29:35.458Z,3.80
2022-10-10T04:32:03.999Z,3.47
2022-10-10T04:34:31.103Z,3.03
2022-10-10T04:36:58.188Z,3.40
2022-10-10T04:39:25.392Z,3.80
2022-10-10T04:41:52.509Z,3.33
2022-10-10T04:44:19.850Z,3.57
2022-10-10T04:46:46.961Z,3.60
2022-10-10T04:49:15.397Z,3.43
2022-10-10T04:51:42.512Z,3.40
2022-10-10T04:54:09.657Z,3.00
2022-10-10T04:56:36.803Z,2.90
2022-10-10T04:59:03.909Z,3.30
2022-10-10T05:01:31.090Z,3.47
2022-10-10T05:03:58.188Z,3.37
2022-10-10T05:06:26.663Z,3.30
2022-10-10T05:08:53.754Z,3.73
2022-10-10T05:11:20.868Z,3.90
2022-10-10T05:13:47.948Z,4.23
2022-10-10T05:16:15.057Z,4.27
2022-10-10T05:18:42.132Z,3.60
2022-10-10T05:21:09.339Z,4.63
2022-10-10T05:23:38.232Z,3.50
2022-10-10T05:26:05.588Z,4.20
2022-10-10T05:28:32.722Z,4.20
2022-10-10T05:30:59.863Z,3.73
2022-10-10T05:33:27.017Z,4.30
2022-10-10T05:35:54.148Z,4.83
2022-10-10T05:38:21.239Z,4.43
2022-10-10T05:40:49.699Z,4.40
2022-10-10T05:43:16.774Z,4.43
2022-10-10T05:45:43.854Z,4.10
2022-10-10T05:48:10.995Z,4.87
2022-10-10T05:50:39.766Z,5.13
2022-10-10T05:53:06.975Z,4.37
2022-10-10T05:55:34.141Z,5.40
2022-10-10T05:58:02.564Z,5.13
2022-10-10T06:00:29.634Z,4.40
2022-10-10T06:02:56.849Z,4.90
2022-10-10T06:05:24.016Z,4.53
2022-10-10T06:08:11.606Z,5.13
2022-10-10T06:10:38.840Z,4.97
2022-10-10T06:13:07.279Z,4.77
2022-10-10T06:15:34.378Z,5.60
2022-10-10T06:18:01.470Z,4.77
2022-10-10T06:20:28.652Z,5.73
2022-10-10T06:22:55.928Z,5.90
2022-10-10T06:25:40.191Z,4.97
2022-10-10T06:28:10.922Z,5.37
2022-10-10T06:30:40.369Z,5.33
2022-10-10T06:33:07.454Z,5.10
2022-10-10T06:35:34.538Z,5.60
2022-10-10T06:38:01.648Z,4.87
2022-10-10T06:40:28.737Z,4.90
2022-10-10T06:42:55.801Z,5.47
2022-10-10T06:45:24.239Z,4.00
2022-10-10T06:47:51.317Z,5.67
2022-10-10T06:50:18.416Z,4.50
2022-10-10T06:52:45.508Z,4.57
2022-10-10T06:55:12.670Z,4.77
2022-10-10T06:57:39.769Z,4.47
2022-10-10T07:00:07.493Z,4.50
2022-10-10T07:02:35.953Z,4.70
2022-10-10T07:05:03.071Z,4.93
2022-10-10T07:07:30.173Z,4.70
2022-10-10T07:09:57.289Z,4.70
2022-10-10T07:12:24.370Z,5.00
2022-10-10T07:14:51.463Z,5.43
2022-10-10T07:17:18.577Z,4.57
2022-10-10T07:19:47.010Z,4.60
2022-10-10T07:22:14.138Z,5.10
2022-10-10T07:24:41.265Z,6.33
2022-10-10T07:27:09.028Z,5.00
2022-10-10T07:29:36.228Z,4.97
2022-10-10T07:32:03.359Z,4.97
2022-10-10T07:34:30.446Z,4.97
2022-10-10T07:36:58.889Z,5.17
2022-10-10T07:39:26.675Z,5.10
2022-10-10T07:41:53.781Z,4.47
2022-10-10T07:44:21.268Z,5.00
2022-10-10T07:46:48.338Z,5.83
2022-10-10T07:49:15.461Z,6.13
2022-10-10T07:51:42.548Z,5.20
2022-10-10T07:54:11.160Z,5.87
2022-10-10T07:56:38.249Z,5.27
2022-10-10T07:59:05.334Z,4.80
2022-10-10T08:01:32.504Z,5.57
2022-10-10T08:03:59.626Z,5.20
2022-10-10T08:06:26.815Z,5.17
2022-10-10T08:08:53.915Z,6.27
2022-10-10T08:11:22.754Z,4.40
2022-10-10T08:13:50.216Z,5.63
2022-10-10T08:16:17.504Z,4.70
2022-10-10T08:18:44.593Z,5.07
2022-10-10T08:21:12.862Z,5.77
2022-10-10T08:23:40.112Z,6.50
2022-10-10T08:26:08.207Z,5.60
2022-10-10T08:28:37.238Z,4.80
2022-10-10T08:31:06.212Z,4.60
2022-10-10T08:33:33.499Z,5.70
2022-10-10T08:36:04.598Z,4.90
2022-10-10T08:38:31.714Z,4.90
2022-10-10T08:41:00.605Z,5.03
2022-10-10T08:43:30.912Z,4.60
2022-10-10T08:45:59.417Z,4.50
2022-10-10T08:48:28.495Z,5.30
2022-10-10T08:50:57.445Z,5.13
2022-10-10T08:53:27.953Z,4.60
2022-10-10T08:55:55.899Z,5.83
2022-10-10T08:58:24.780Z,4.80
2022-10-10T09:00:55.576Z,4.97
2022-10-10T09:03:27.541Z,5.97
2022-10-10T09:06:05.541Z,4.67
2022-10-10T09:08:41.533Z,5.10
2022-10-10T09:11:15.713Z,4.73
2022-10-10T09:13:45.339Z,4.63
2022-10-10T09:16:20.445Z,5.50
2022-10-10T09:18:54.083Z,5.33
2022-10-10T09:21:22.768Z,4.90
2022-10-10T09:23:51.475Z,4.70
2022-10-10T09:26:20.421Z,4.90
2022-10-10T09:28:50.630Z,5.20
2022-10-10T09:31:18.829Z,4.83
2022-10-10T09:33:49.362Z,5.10
2022-10-10T09:36:19.295Z,5.27
2022-10-10T09:38:48.496Z,5.40
2022-10-10T09:41:17.535Z,5.20
2022-10-10T09:43:44.782Z,5.00
2022-10-10T09:46:11.900Z,5.20
2022-10-10T09:48:39.838Z,5.60
2022-10-10T09:51:08.833Z,5.47
2022-10-10T09:53:37.318Z,4.63
2022-10-10T09:56:05.469Z,4.83
2022-10-10T09:58:34.698Z,5.00
2022-10-10T10:01:13.270Z,4.73
2022-10-10T10:03:40.407Z,5.00
2022-10-10T10:06:11.549Z,4.27
2022-10-10T10:08:40.181Z,4.53
2022-10-10T10:11:20.811Z,4.57
2022-10-10T10:13:54.073Z,4.87
2022-10-10T10:16:29.679Z,4.77
2022-10-10T10:18:56.798Z,4.60
2022-10-10T10:21:24.860Z,4.40
2022-10-10T10:23:55.397Z,4.57
2022-10-10T10:26:24.199Z,4.90
2022-10-10T10:28:52.652Z,4.23
2022-10-10T10:31:27.985Z,4.20
2022-10-10T10:34:02.006Z,4.57
2022-10-10T10:36:35.086Z,4.70
2022-10-10T10:39:09.546Z,4.30
2022-10-10T10:41:40.114Z,4.37
2022-10-10T10:44:21.612Z,4.60
2022-10-10T10:46:55.237Z,4.60
2022-10-10T10:49:25.511Z,4.33
2022-10-10T10:52:11.062Z,4.50
2022-10-10T10:54:45.610Z,4.03
2022-10-10T11:00:25.826Z,4.30
2022-10-10T11:03:20.597Z,3.67
2022-10-10T11:05:48.737Z,3.70
2022-10-10T11:08:22.732Z,4.00
2022-10-10T11:10:54.440Z,3.80
2022-10-10T11:13:25.984Z,3.17
2022-10-10T11:16:24.285Z,3.80
2022-10-10T11:18:45.989Z,3.00
2022-10-10T11:21:14.936Z,3.47
2022-10-10T11:23:44.115Z,3.60
2022-10-10T11:26:13.654Z,3.43
2022-10-10T11:28:45.006Z,3.57
2022-10-10T11:31:19.262Z,3.83
2022-10-10T11:33:47.559Z,3.53
2022-10-10T11:36:16.734Z,3.17
2022-10-10T11:38:46.083Z,3.90
2022-10-10T11:41:16.692Z,3.50
2022-10-10T11:43:47.068Z,3.40
2022-10-10T11:46:18.533Z,2.83
2022-10-10T11:48:48.436Z,3.13
2022-10-10T11:51:18.953Z,2.77
2022-10-10T11:53:46.484Z,3.10
2022-10-10T11:56:18.112Z,4.10
2022-10-10T11:58:46.719Z,2.93
2022-10-10T12:01:16.686Z,2.20
2022-10-10T12:03:44.034Z,3.17
2022-10-10T12:06:15.237Z,3.47
2022-10-10T12:08:46.313Z,4.10
2022-10-10T12:11:18.621Z,3.53
2022-10-10T12:13:47.538Z,3.60
2022-10-10T12:16:16.266Z,3.00
2022-10-10T12:18:45.056Z,4.00
2022-10-10T12:21:13.779Z,3.77
2022-10-10T12:23:41.446Z,3.47
2022-10-10T12:26:13.352Z,3.70
2022-10-10T12:29:00.693Z,3.27
2022-10-10T12:31:28.955Z,3.03
2022-10-10T12:34:00.566Z,3.13
2022-10-10T12:36:57.958Z,3.03
2022-10-10T12:39:32.839Z,2.93
2022-10-10T12:42:00.084Z,3.57
2022-10-10T12:44:42.250Z,3.20
2022-10-10T12:47:46.313Z,3.23
2022-10-10T12:50:22.545Z,3.03
2022-10-10T12:52:52.168Z,3.67
2022-10-10T12:55:20.758Z,2.60
2022-10-10T12:57:48.973Z,3.20
2022-10-10T13:00:18.871Z,3.10
2022-10-10T13:02:47.327Z,3.07
2022-10-10T13:05:15.781Z,3.57
2022-10-10T13:07:43.259Z,3.07
2022-10-10T13:10:20.153Z,3.37
2022-10-10T13:12:58.368Z,3.17
2022-10-10T13:15:26.963Z,3.37
2022-10-10T13:17:54.017Z,3.47
2022-10-10T13:20:27.816Z,3.10
2022-10-10T13:22:56.207Z,3.10
2022-10-10T13:25:23.425Z,3.80
2022-10-10T13:27:50.629Z,4.33
2022-10-10T13:30:19.526Z,3.30
2022-10-10T13:32:48.240Z,2.97
2022-10-10T13:35:17.021Z,2.90
2022-10-10T13:37:44.554Z,3.67
2022-10-10T13:40:14.271Z,3.50
2022-10-10T13:42:41.576Z,3.53
2022-10-10T13:45:27.873Z,3.60
2022-10-10T13:48:10.576Z,3.37
2022-10-10T13:50:53.528Z,2.90
2022-10-10T13:53:25.169Z,3.73
2022-10-10T13:55:58.149Z,3.80
2022-10-10T13:58:25.433Z,3.77
2022-10-10T14:00:56.552Z,4.00
2022-10-10T14:03:25.583Z,3.47
2022-10-10T14:05:52.938Z,3.30
2022-10-10T14:08:20.885Z,4.13
2022-10-10T14:10:56.640Z,3.10
2022-10-10T14:13:23.811Z,3.50
2022-10-10T14:15:50.952Z,4.00
2022-10-10T14:18:18.982Z,3.67
2022-10-10T14:20:47.890Z,4.40
2022-10-10T14:23:15.409Z,3.67
2022-10-10T14:25:43.327Z,3.10
2022-10-10T14:28:15.312Z,3.60
2022-10-10T14:30:42.507Z,4.67
2022-10-10T14:33:10.861Z,3.67
2022-10-10T14:35:38.601Z,4.00
2022-10-10T14:38:07.035Z,2.63
2022-10-10T14:40:34.666Z,3.33
2022-10-10T14:43:01.751Z,2.77
2022-10-10T14:45:28.966Z,4.00
2022-10-10T14:47:56.118Z,3.93
2022-10-10T14:50:24.072Z,4.27
2022-10-10T14:52:51.177Z,4.27
2022-10-10T14:55:19.764Z,3.83
2022-10-10T14:57:46.940Z,3.37
2022-10-10T15:00:15.509Z,3.60
2022-10-10T15:02:45.566Z,3.83
2022-10-10T15:05:13.056Z,3.87
2022-10-10T15:07:40.320Z,3.83
2022-10-10T15:12:56.247Z,3.90
2022-10-10T15:15:23.323Z,4.90
2022-10-10T15:17:50.436Z,5.17
2022-10-10T15:20:17.655Z,3.40
2022-10-10T15:22:44.797Z,3.40
2022-10-10T15:25:11.894Z,3.10
2022-10-10T15:27:39.115Z,3.53
2022-10-10T15:30:08.453Z,3.83
2022-10-10T15:32:37.893Z,3.87
2022-10-10T15:35:05.191Z,3.83
2022-10-10T15:37:32.267Z,4.40
2022-10-10T15:39:59.393Z,3.67
2022-10-10T15:42:26.521Z,5.10
2022-10-10T15:44:53.620Z,4.30
2022-10-10T15:47:22.098Z,4.60
2022-10-10T15:49:49.435Z,4.23
2022-10-10T15:52:16.654Z,4.23
2022-10-10T15:54:43.692Z,4.33
2022-10-10T15:57:13.205Z,3.60
2022-10-10T15:59:44.148Z,2.77
2022-10-10T16:02:12.207Z,3.53
2022-10-10T16:04:40.633Z,3.50
2022-10-10T16:09:55.040Z,4.40
2022-10-10T16:12:22.156Z,3.67
2022-10-10T16:14:49.291Z,4.07
2022-10-10T16:17:20.793Z,3.37
2022-10-10T16:19:51.671Z,3.67
2022-10-10T16:22:18.766Z,4.63
2022-10-10T16:24:58.298Z,3.80
2022-10-10T16:27:31.132Z,3.90
2022-10-10T16:29:58.258Z,3.90
2022-10-10T16:32:25.457Z,4.03
2022-10-10T16:34:53.859Z,3.30
2022-10-10T16:37:20.973Z,4.27
2022-10-10T16:39:48.082Z,4.07
2022-10-10T16:42:15.151Z,4.70
2022-10-10T16:44:42.259Z,3.97
2022-10-10T16:47:09.591Z,4.43
2022-10-10T16:49:36.688Z,4.20
2022-10-10T16:52:05.254Z,3.97
2022-10-10T16:54:32.357Z,4.77
2022-10-10T16:56:59.497Z,5.00
2022-10-10T16:59:26.570Z,6.70
2022-10-10T17:01:53.648Z,5.50
2022-10-10T17:04:20.716Z,5.07
2022-10-10T17:06:47.806Z,5.50
2022-10-10T17:09:16.270Z,5.83
2022-10-10T17:11:44.634Z,6.03
2022-10-10T17:14:14.157Z,5.70
2022-10-10T17:19:28.314Z,5.47
2022-10-10T17:21:55.793Z,4.37
2022-10-10T17:24:24.649Z,5.30
2022-10-10T17:26:51.759Z,4.27
2022-10-10T17:29:18.910Z,4.77
2022-10-10T17:31:46.010Z,5.43
2022-10-10T17:34:13.080Z,5.40
2022-10-10T17:36:40.186Z,5.83
2022-10-10T17:39:07.253Z,4.80
2022-10-10T17:41:35.726Z,5.80
2022-10-10T17:44:02.858Z,6.23
2022-10-10T17:46:34.818Z,5.90
2022-10-10T17:49:03.171Z,6.60
2022-10-10T17:51:30.264Z,6.40
2022-10-10T17:53:58.980Z,6.73
2022-10-10T17:56:26.070Z,6.33
2022-10-10T17:58:54.531Z,6.73
2022-10-10T18:01:22.319Z,6.50
2022-10-10T18:03:49.757Z,5.53
2022-10-10T18:06:18.049Z,4.57
2022-10-10T18:08:46.534Z,4.27
2022-10-10T18:11:14.193Z,3.30
2022-10-10T18:13:41.530Z,3.90
2022-10-10T18:16:11.144Z,3.60
2022-10-10T18:18:38.521Z,3.80
2022-10-10T18:21:08.201Z,4.20
2022-10-10T18:23:35.513Z,3.57
2022-10-10T18:26:03.293Z,2.97
2022-10-10T18:28:31.120Z,2.70
2022-10-10T18:30:58.385Z,2.30
2022-10-10T18:33:26.825Z,2.97
2022-10-10T18:35:53.919Z,3.03
2022-10-10T18:38:20.974Z,3.60
2022-10-10T18:40:48.061Z,2.93
2022-10-10T18:43:15.153Z,2.73
2022-10-10T18:45:42.204Z,4.37
2022-10-10T18:48:09.295Z,3.20
2022-10-10T18:50:37.739Z,3.37
2022-10-10T18:53:04.854Z,3.60
2022-10-10T18:55:31.941Z,4.17
2022-10-10T18:57:59.636Z,4.30
2022-10-10T19:00:26.707Z,3.70
2022-10-10T19:02:53.796Z,3.90
2022-10-10T19:05:20.943Z,4.60
2022-10-10T19:07:49.354Z,3.73
2022-10-10T19:10:16.485Z,2.90
2022-10-10T19:12:47.175Z,4.07
2022-10-10T19:15:14.520Z,3.53
2022-10-10T19:17:41.616Z,4.30
2022-10-10T19:20:09.062Z,4.10
2022-10-10T19:22:36.118Z,3.57
2022-10-10T19:25:04.916Z,3.63
2022-10-10T19:27:32.027Z,3.40
2022-10-10T19:29:59.074Z,4.23
2022-10-10T19:32:26.161Z,3.37
2022-10-10T19:34:53.309Z,2.40
2022-10-10T19:37:20.420Z,2.70
2022-10-10T19:39:47.487Z,3.77
2022-10-10T19:42:15.918Z,4.20
2022-10-10T19:44:43.020Z,2.93
2022-10-10T19:47:10.161Z,3.20
2022-10-10T19:49:37.349Z,2.80
2022-10-10T19:52:04.584Z,2.73
2022-10-10T19:54:31.853Z,2.40
2022-10-10T19:56:58.946Z,3.40
2022-10-10T19:59:27.454Z,3.90
2022-10-10T20:01:54.601Z,2.33
2022-10-10T20:04:21.748Z,2.57
2022-10-10T20:06:49.023Z,2.60
2022-10-10T20:09:16.133Z,2.63
2022-10-10T20:11:43.214Z,3.20
2022-10-10T20:14:10.448Z,3.33
2022-10-10T20:16:38.906Z,2.90
2022-10-10T20:19:06.011Z,2.57
2022-10-10T20:21:33.883Z,2.43
2022-10-10T20:24:01.738Z,3.40
2022-10-10T20:26:29.015Z,3.03
2022-10-10T20:28:57.273Z,3.30
2022-10-10T20:31:25.059Z,3.00
2022-10-10T20:33:54.248Z,2.90
2022-10-10T20:36:21.670Z,3.07
2022-10-10T20:38:51.988Z,3.33
2022-10-10T20:41:19.075Z,2.97
2022-10-10T20:43:46.175Z,3.40
2022-10-10T20:46:13.910Z,3.20
2022-10-10T20:48:41.514Z,3.47
2022-10-10T20:51:10.859Z,3.10
2022-10-10T20:53:38.722Z,3.27
2022-10-10T20:56:06.933Z,3.57
2022-10-10T20:58:34.828Z,3.93
2022-10-10T21:01:05.933Z,4.43
2022-10-10T21:03:33.121Z,4.33
2022-10-10T21:06:04.759Z,3.80
2022-10-10T21:08:33.515Z,4.30
2022-10-10T21:11:00.807Z,3.93
2022-10-10T21:13:28.117Z,3.53
2022-10-10T21:15:55.209Z,3.20
2022-10-10T21:18:22.345Z,3.20
2022-10-10T21:20:49.481Z,3.70
2022-10-10T21:23:16.569Z,3.90
2022-10-10T21:25:44.995Z,4.20
2022-10-10T21:28:12.135Z,4.33
2022-10-10T21:30:46.732Z,3.73
2022-10-10T21:33:13.822Z,3.33
2022-10-10T21:35:40.897Z,3.70
2022-10-10T21:38:07.987Z,4.33
2022-10-10T21:40:35.627Z,3.20
2022-10-10T21:43:04.113Z,3.77
2022-10-10T21:45:34.167Z,3.27
2022-10-10T21:48:01.271Z,3.30
2022-10-10T21:50:28.649Z,3.90
2022-10-10T21:52:55.876Z,2.93
2022-10-10T21:55:23.126Z,4.07
2022-10-10T21:57:50.284Z,3.30
2022-10-10T22:00:19.010Z,3.63
2022-10-10T22:02:46.266Z,3.50
2022-10-10T22:05:13.822Z,5.07
2022-10-10T22:07:41.513Z,3.83
2022-10-10T22:10:09.507Z,3.73
2022-10-10T22:12:36.603Z,3.80
2022-10-10T22:15:03.735Z,3.93
2022-10-10T22:17:32.188Z,3.60
2022-10-10T22:19:59.258Z,3.60
2022-10-10T22:22:26.379Z,4.10
2022-10-10T22:24:53.531Z,3.53
2022-10-10T22:27:20.605Z,3.73
2022-10-10T22:29:47.687Z,3.90
2022-10-10T22:32:14.767Z,3.20
2022-10-10T22:34:43.203Z,4.70
2022-10-10T22:37:10.303Z,3.40
2022-10-10T22:39:37.368Z,3.83
2022-10-10T22:42:04.527Z,3.43
2022-10-10T22:44:31.630Z,3.70
2022-10-10T22:46:58.718Z,4.13
2022-10-10T22:49:25.890Z,4.00
2022-10-10T22:51:54.370Z,4.43
2022-10-10T22:54:21.421Z,3.40
2022-10-10T22:56:49.264Z,4.30
2022-10-10T22:59:16.333Z,3.90
2022-10-10T23:01:43.459Z,4.00
2022-10-10T23:04:10.557Z,4.97
2022-10-10T23:06:37.869Z,5.00
2022-10-10T23:09:06.421Z,4.47
2022-10-10T23:11:33.521Z,4.57
2022-10-10T23:14:01.096Z,4.77
2022-10-10T23:16:28.218Z,4.10
2022-10-10T23:18:55.310Z,3.87
2022-10-10T23:21:22.579Z,4.50
2022-10-10T23:23:49.672Z,4.40
2022-10-10T23:26:18.107Z,4.13
2022-10-10T23:28:45.303Z,4.47
2022-10-10T23:31:12.502Z,5.33
2022-10-10T23:33:39.611Z,5.70
2022-10-10T23:36:08.683Z,4.37
2022-10-10T23:38:36.169Z,3.90
2022-10-10T23:41:03.330Z,4.57
2022-10-10T23:43:31.798Z,4.40
2022-10-10T23:45:58.887Z,4.17
2022-10-10T23:48:26.057Z,4.37
2022-10-10T23:50:53.136Z,5.73
2022-10-10T23:53:20.269Z,5.03
2022-10-10T23:55:47.716Z,6.70
2022-10-10T23:58:14.974Z,5.63
